Time;durP1;ratioP1;P1;durP2;ratioP2;P2;SDS_P1;SDS_P2;PMS_P1;PMS_P2;Temp;Humidity;BMP_temperature;BMP_pressure;BME280_temperature;BME280_humidity;BME280_pressure;Samples;Min_cycle;Max_cycle;Signal;HPM_P1;HPM_P2
2022/03/14 00:00:19;;;;;;;;;;;;;;;;;;5033133;28;20153;-74
2022/03/14 00:02:45;;;;;;;;;;;;;;;;;;5031735;28;20284;-72
2022/03/14 00:05:13;;;;;;;;;;;;;;;;;;5030958;28;19940;-74
2022/03/14 00:07:41;;;;;;;;;;;;;;;;;;5032202;28;20498;-72
2022/03/14 00:10:07;;;;;;;;;;;;;;;;;;5035224;28;20040;-73
2022/03/14 00:12:33;;;;;;;;;;;;;;;;;;5034365;28;19932;-73
2022/03/14 00:15:01;;;;;;;;;;;;;;;;;;5031360;28;19932;-72
2022/03/14 00:17:28;;;;;;;;;;;;;;;;;;5029749;28;20311;-73
2022/03/14 00:19:54;;;;;;;;;;;;;;;;;;5030418;28;19992;-71
2022/03/14 00:22:22;;;;;;;;;;;;;;;;;;5022356;28;19933;-72
2022/03/14 00:24:48;;;;;;;;;;;;;;;;;;5030939;28;20386;-73
2022/03/14 00:27:14;;;;;;;;;;;;;;;;;;5029135;28;20261;-71
2022/03/14 00:29:40;;;;;;;;;;;;;;;;;;5032404;28;20303;-73
2022/03/14 00:32:07;;;;;;;;;;;;;;;;;;5031681;28;20295;-73
2022/03/14 00:34:33;;;;;;;;;;;;;;;;;;5029080;28;20376;-72
2022/03/14 00:36:59;;;;;;;;;;;;;;;;;;5031079;28;19929;-73
2022/03/14 00:39:25;;;;;;;;;;;;;;;;;;5031589;28;20103;-73
2022/03/14 00:41:51;;;;;;;;;;;;;;;;;;5032130;28;19925;-73
2022/03/14 00:44:18;;;;;;;;;;;;;;;;;;5032708;28;19928;-73
2022/03/14 00:46:44;;;;;;;;;;;;;;;;;;5030117;28;20366;-73
2022/03/14 00:49:10;;;;;;;;;;;;;;;;;;5022969;28;20430;-72
2022/03/14 00:51:37;;;;;;;;;;;;;;;;;;5030669;28;19932;-73
2022/03/14 00:54:03;;;;;;;;;;;;;;;;;;5027888;28;19929;-72
2022/03/14 00:56:29;;;;;;;;;;;;;;;;;;5030560;28;19925;-72
2022/03/14 00:58:56;;;;;;;;;;;;;;;;;;5027875;28;19925;-72
2022/03/14 01:01:22;;;;;;;;;;;;;;;;;;5030963;28;19936;-71
2022/03/14 01:03:48;;;;;;;;;;;;;;;;;;5030781;28;20112;-72
2022/03/14 01:06:14;;;;;;;;;;;;;;;;;;5029905;28;20020;-73
2022/03/14 01:08:40;;;;;;;;;;;;;;;;;;5029486;28;19961;-71
2022/03/14 01:11:06;;;;;;;;;;;;;;;;;;5031258;28;19955;-71
2022/03/14 01:13:32;;;;;;;;;;;;;;;;;;5031048;28;20020;-73
2022/03/14 01:15:59;;;;;;;;;;;;;;;;;;5029544;28;19952;-72
2022/03/14 01:18:25;;;;;;;;;;;;;;;;;;5027150;28;19926;-71
2022/03/14 01:20:51;;;;;;;;;;;;;;;;;;5021927;28;20016;-72
2022/03/14 01:23:17;;;;;;;;;;;;;;;;;;5024609;28;19932;-73
2022/03/14 01:25:45;;;;;;;;;;;;;;;;;;5030316;28;19929;-74
2022/03/14 01:28:11;;;;;;;;;;;;;;;;;;5026325;28;20402;-72
2022/03/14 01:30:37;;;;;;;;;;;;;;;;;;5029910;28;19929;-72
2022/03/14 01:33:03;;;;;;;;;;;;;;;;;;5031052;28;19932;-73
2022/03/14 01:35:29;;;;;;;;;;;;;;;;;;5030702;28;19925;-73
2022/03/14 01:37:57;;;;;;;;;;;;;;;;;;5031870;28;19925;-73
2022/03/14 01:40:23;;;;;;;;;;;;;;;;;;5031659;28;19925;-74
2022/03/14 01:42:49;;;;;;;;;;;;;;;;;;5031153;28;19932;-74
2022/03/14 01:45:17;;;;;;;;;;;;;;;;;;5031207;28;19973;-75
2022/03/14 01:47:44;;;;;;;;;;;;;;;;;;5029439;28;19972;-73
2022/03/14 01:50:10;;;;;;;;;;;;;;;;;;5030570;28;19932;-72
2022/03/14 01:52:36;;;;;;;;;;;;;;;;;;5025021;28;19932;-72
2022/03/14 01:55:02;;;;;;;;;;;;;;;;;;5031146;28;20294;-73
2022/03/14 01:57:29;;;;;;;;;;;;;;;;;;5029058;28;19933;-73
2022/03/14 01:59:55;;;;;;;;;;;;;;;;;;5030814;28;19969;-72
2022/03/14 02:02:21;;;;;;;;;;;;;;;;;;5030464;28;19966;-73
2022/03/14 02:04:48;;;;;;;;;;;;;;;;;;5030486;28;20395;-72
2022/03/14 02:07:14;;;;;;;;;;;;;;;;;;5028375;28;19979;-73
2022/03/14 02:09:40;;;;;;;;;;;;;;;;;;5030500;28;19932;-73
2022/03/14 02:12:06;;;;;;;;;;;;;;;;;;5030083;28;19925;-72
2022/03/14 02:14:34;;;;;;;;;;;;;;;;;;5029499;28;20020;-72
2022/03/14 02:17:00;;;;;;;;;;;;;;;;;;5029156;28;19970;-73
2022/03/14 02:19:26;;;;;;;;;;;;;;;;;;5017970;28;19925;-72
2022/03/14 02:21:52;;;;;;;;;;;;;;;;;;5016805;28;19925;-73
2022/03/14 02:24:18;;;;;;;;;;;;;;;;;;5025918;28;19929;-72
2022/03/14 02:26:45;;;;;;;;;;;;;;;;;;5030340;28;19979;-72
2022/03/14 02:29:11;;;;;;;;;;;;;;;;;;5030290;28;20393;-73
2022/03/14 02:31:37;;;;;;;;;;;;;;;;;;5028563;28;19955;-74
2022/03/14 02:34:04;;;;;;;;;;;;;;;;;;5028020;28;20257;-73
2022/03/14 02:36:30;;;;;;;;;;;;;;;;;;5029330;28;19991;-72
2022/03/14 02:38:57;;;;;;;;;;;;;;;;;;5030522;28;20272;-74
2022/03/14 02:41:23;;;;;;;;;;;;;;;;;;5025530;28;20752;-74
2022/03/14 02:43:49;;;;;;;;;;;;;;;;;;5028620;28;19940;-72
2022/03/14 02:46:15;;;;;;;;;;;;;;;;;;5025557;28;19929;-71
2022/03/14 02:48:41;;;;;;;;;;;;;;;;;;5018534;28;19988;-73
2022/03/14 02:51:07;;;;;;;;;;;;;;;;;;5027190;28;19925;-73
2022/03/14 02:53:33;;;;;;;;;;;;;;;;;;5028606;28;19929;-73
2022/03/14 02:55:59;;;;;;;;;;;;;;;;;;5028441;28;19929;-74
2022/03/14 02:58:28;;;;;;;;;;;;;;;;;;5032409;28;20100;-73
2022/03/14 03:00:55;;;;;;;;;;;;;;;;;;5033854;28;19965;-72
2022/03/14 03:03:21;;;;;;;;;;;;;;;;;;5031545;28;19937;-72
2022/03/14 03:05:48;;;;;;;;;;;;;;;;;;5033525;28;19926;-74
2022/03/14 03:08:14;;;;;;;;;;;;;;;;;;5032047;28;20418;-74
2022/03/14 03:10:41;;;;;;;;;;;;;;;;;;5033280;28;19971;-72
2022/03/14 03:13:07;;;;;;;;;;;;;;;;;;5031921;28;19925;-72
2022/03/14 03:15:37;;;;;;;;;;;;;;;;;;5031977;28;19925;-73
2022/03/14 03:18:03;;;;;;;;;;;;;;;;;;5024421;28;19980;-73
2022/03/14 03:20:30;;;;;;;;;;;;;;;;;;5022267;28;19925;-72
2022/03/14 03:22:56;;;;;;;;;;;;;;;;;;5031059;28;19929;-72
2022/03/14 03:25:22;;;;;;;;;;;;;;;;;;5033079;28;19933;-72
2022/03/14 03:27:48;;;;;;;;;;;;;;;;;;5033534;28;19936;-71
2022/03/14 03:30:14;;;;;;;;;;;;;;;;;;5033342;28;19925;-72
2022/03/14 03:32:40;;;;;;;;;;;;;;;;;;5031402;28;19932;-72
2022/03/14 03:35:06;;;;;;;;;;;;;;;;;;5032560;28;19936;-71
2022/03/14 03:37:32;;;;;;;;;;;;;;;;;;5031936;28;19932;-71
2022/03/14 03:39:59;;;;;;;;;;;;;;;;;;5033371;28;19925;-71
2022/03/14 03:42:25;;;;;;;;;;;;;;;;;;5033549;28;20221;-73
2022/03/14 03:44:51;;;;;;;;;;;;;;;;;;5028212;28;19934;-72
2022/03/14 03:47:17;;;;;;;;;;;;;;;;;;5031255;28;19956;-72
2022/03/14 03:49:43;;;;;;;;;;;;;;;;;;5026756;28;19933;-72
2022/03/14 03:52:10;;;;;;;;;;;;;;;;;;5032134;28;19929;-72
2022/03/14 03:54:36;;;;;;;;;;;;;;;;;;5032831;28;19925;-72
2022/03/14 03:57:03;;;;;;;;;;;;;;;;;;5031520;28;19925;-72
2022/03/14 03:59:29;;;;;;;;;;;;;;;;;;5036782;28;20383;-71
2022/03/14 04:01:55;;;;;;;;;;;;;;;;;;5033497;28;19955;-73
2022/03/14 04:04:22;;;;;;;;;;;;;;;;;;5030824;28;19933;-73
2022/03/14 04:06:54;;;;;;;;;;;;;;;;;;5027258;28;19929;-74
2022/03/14 04:09:20;;;;;;;;;;;;;;;;;;5030215;28;20033;-74
2022/03/14 04:11:47;;;;;;;;;;;;;;;;;;5028027;28;19971;-72
2022/03/14 04:14:13;;;;;;;;;;;;;;;;;;5030922;28;19948;-74
2022/03/14 04:16:39;;;;;;;;;;;;;;;;;;5028762;28;19960;-72
2022/03/14 04:19:06;;;;;;;;;;;;;;;;;;5026181;28;19925;-73
2022/03/14 04:21:36;;;;;;;;;;;;;;;;;;5029335;28;19929;-74
2022/03/14 04:24:06;;;;;;;;;;;;;;;;;;5030342;28;20355;-73
2022/03/14 04:26:32;;;;;;;;;;;;;;;;;;5031411;28;19932;-72
2022/03/14 04:28:58;;;;;;;;;;;;;;;;;;5031056;28;19929;-73
2022/03/14 04:31:24;;;;;;;;;;;;;;;;;;5028815;28;20415;-73
2022/03/14 04:33:50;;;;;;;;;;;;;;;;;;5029145;28;19929;-74
2022/03/14 04:36:16;;;;;;;;;;;;;;;;;;5032292;28;19983;-75
2022/03/14 04:38:42;;;;;;;;;;;;;;;;;;5030297;28;19929;-73
2022/03/14 04:41:09;;;;;;;;;;;;;;;;;;5030737;28;19932;-74
2022/03/14 04:43:35;;;;;;;;;;;;;;;;;;5029392;28;20065;-74
2022/03/14 04:46:01;;;;;;;;;;;;;;;;;;5031818;28;19932;-72
2022/03/14 04:48:27;;;;;;;;;;;;;;;;;;5021000;28;19932;-73
2022/03/14 04:50:53;;;;;;;;;;;;;;;;;;5027147;28;19932;-74
2022/03/14 04:53:19;;;;;;;;;;;;;;;;;;5029969;28;19929;-73
2022/03/14 04:55:46;;;;;;;;;;;;;;;;;;5027298;28;20173;-74
2022/03/14 04:58:14;;;;;;;;;;;;;;;;;;5031423;28;20390;-72
2022/03/14 05:00:40;;;;;;;;;;;;;;;;;;5031714;28;19929;-72
2022/03/14 05:03:06;;;;;;;;;;;;;;;;;;5030778;28;20008;-74
2022/03/14 05:05:32;;;;;;;;;;;;;;;;;;5026495;28;19932;-73
2022/03/14 05:07:59;;;;;;;;;;;;;;;;;;5031210;28;20280;-74
2022/03/14 05:10:25;;;;;;;;;;;;;;;;;;5028064;28;20308;-74
2022/03/14 05:12:51;;;;;;;;;;;;;;;;;;5031063;28;20161;-73
2022/03/14 05:15:17;;;;;;;;;;;;;;;;;;5030190;28;19929;-73
2022/03/14 05:17:43;;;;;;;;;;;;;;;;;;5030983;28;19971;-74
2022/03/14 05:20:10;;;;;;;;;;;;;;;;;;5018809;28;19936;-74
2022/03/14 05:22:36;;;;;;;;;;;;;;;;;;5030921;28;19925;-75
2022/03/14 05:25:02;;;;;;;;;;;;;;;;;;5029867;28;19980;-74
2022/03/14 05:27:28;;;;;;;;;;;;;;;;;;5027302;28;19932;-73
2022/03/14 05:29:54;;;;;;;;;;;;;;;;;;5031472;28;19925;-74
2022/03/14 05:32:21;;;;;;;;;;;;;;;;;;5030677;28;19932;-73
2022/03/14 05:34:47;;;;;;;;;;;;;;;;;;5029015;28;19936;-74
2022/03/14 05:37:13;;;;;;;;;;;;;;;;;;5027194;28;20391;-74
2022/03/14 05:39:40;;;;;;;;;;;;;;;;;;5029748;28;19935;-73
2022/03/14 05:42:06;;;;;;;;;;;;;;;;;;5027065;28;19925;-75
2022/03/14 05:44:32;;;;;;;;;;;;;;;;;;5074596;22;20465;-76
2022/03/14 05:46:58;;;;;;;;;;;;;;;;;;5065775;28;20299;-74
2022/03/14 05:49:24;;;;;;;;;;;;;;;;;;5070422;28;19932;-72
2022/03/14 05:51:52;;;;;;;;;;;;;;;;;;5069980;28;19924;-74
2022/03/14 05:54:18;;;;;;;;;;;;;;;;;;5079275;28;20351;-74
2022/03/14 05:56:45;;;;;;;;;;;;;;;;;;5087580;28;19970;-75
2022/03/14 05:59:13;;;;;;;;;;;;;;;;;;5090471;28;22378;-76
2022/03/14 06:01:40;;;;;;;;;;;;;;;;;;5091449;28;19990;-76
2022/03/14 06:04:06;;;;;;;;;;;;;;;;;;5082153;28;19924;-75
2022/03/14 06:06:34;;;;;;;;;;;;;;;;;;5090993;28;19927;-77
2022/03/14 06:09:00;;;;;;;;;;;;;;;;;;4737444;28;10000471;-74
2022/03/14 06:11:27;;;;;;;;;;;;;;;;;;5086107;28;19928;-75
2022/03/14 06:13:53;;;;;;;;;;;;;;;;;;5088396;28;20408;-75
2022/03/14 06:16:21;;;;;;;;;;;;;;;;;;5090267;28;19928;-75
2022/03/14 06:18:47;;;;;;;;;;;;;;;;;;5083150;28;19928;-75
2022/03/14 06:21:14;;;;;;;;;;;;;;;;;;5083991;28;19928;-73
2022/03/14 06:23:40;;;;;;;;;;;;;;;;;;5088152;28;19959;-74
2022/03/14 06:26:06;;;;;;;;;;;;;;;;;;5087835;28;19935;-75
2022/03/14 06:28:32;;;;;;;;;;;;;;;;;;5088701;28;19973;-74
2022/03/14 06:30:58;;;;;;;;;;;;;;;;;;5087439;28;19928;-73
2022/03/14 06:33:24;;;;;;;;;;;;;;;;;;5085745;28;19924;-74
2022/03/14 06:35:51;;;;;;;;;;;;;;;;;;5087593;28;20405;-74
2022/03/14 06:38:17;;;;;;;;;;;;;;;;;;5088532;28;19932;-76
2022/03/14 06:40:43;;;;;;;;;;;;;;;;;;5086930;28;19932;-76
2022/03/14 06:43:09;;;;;;;;;;;;;;;;;;5088088;28;19924;-75
2022/03/14 06:45:38;;;;;;;;;;;;;;;;;;5088596;28;20390;-74
2022/03/14 06:48:05;;;;;;;;;;;;;;;;;;5085211;28;19958;-77
2022/03/14 06:50:31;;;;;;;;;;;;;;;;;;5087518;28;19932;-75
2022/03/14 06:52:58;;;;;;;;;;;;;;;;;;5088199;28;19932;-75
2022/03/14 06:55:24;;;;;;;;;;;;;;;;;;5087803;28;19928;-75
2022/03/14 06:57:50;;;;;;;;;;;;;;;;;;5088268;28;19924;-75
2022/03/14 07:00:16;;;;;;;;;;;;;;;;;;5087605;28;20428;-75
2022/03/14 07:02:42;;;;;;;;;;;;;;;;;;5086857;28;19932;-74
2022/03/14 07:05:08;;;;;;;;;;;;;;;;;;5089477;28;19924;-75
2022/03/14 07:07:35;;;;;;;;;;;;;;;;;;5087857;28;19950;-74
2022/03/14 07:10:01;;;;;;;;;;;;;;;;;;5089074;28;20194;-76
2022/03/14 07:12:27;;;;;;;;;;;;;;;;;;5086079;28;19936;-75
2022/03/14 07:14:53;;;;;;;;;;;;;;;;;;5088662;28;20057;-75
2022/03/14 07:17:20;;;;;;;;;;;;;;;;;;5088150;28;19935;-75
2022/03/14 07:19:46;;;;;;;;;;;;;;;;;;5088140;28;19927;-74
2022/03/14 07:22:17;;;;;;;;;;;;;;;;;;5086150;28;19955;-75
2022/03/14 07:24:43;;;;;;;;;;;;;;;;;;5076363;28;19993;-75
2022/03/14 07:27:10;;;;;;;;;;;;;;;;;;5082823;28;19924;-74
2022/03/14 07:29:36;;;;;;;;;;;;;;;;;;5087437;28;19934;-74
2022/03/14 07:32:02;;;;;;;;;;;;;;;;;;5083015;28;20334;-74
2022/03/14 07:34:31;;;;;;;;;;;;;;;;;;5087442;28;19957;-74
2022/03/14 07:36:57;;;;;;;;;;;;;;;;;;5087175;28;19928;-76
2022/03/14 07:39:23;;;;;;;;;;;;;;;;;;5086774;28;19983;-74
2022/03/14 07:41:49;;;;;;;;;;;;;;;;;;5084356;28;19935;-74
2022/03/14 07:44:15;;;;;;;;;;;;;;;;;;5088314;28;19928;-74
2022/03/14 07:46:41;;;;;;;;;;;;;;;;;;5087730;28;19946;-76
2022/03/14 07:49:09;;;;;;;;;;;;;;;;;;5090339;28;20113;-75
2022/03/14 07:51:36;;;;;;;;;;;;;;;;;;5089235;28;19927;-74
2022/03/14 07:54:02;;;;;;;;;;;;;;;;;;5090659;28;20002;-75
2022/03/14 07:56:28;;;;;;;;;;;;;;;;;;5090103;28;19928;-76
2022/03/14 07:58:54;;;;;;;;;;;;;;;;;;5096228;28;19935;-74
2022/03/14 08:01:20;;;;;;;;;;;;;;;;;;5110154;28;19935;-76
2022/03/14 08:03:46;;;;;;;;;;;;;;;;;;5090450;28;19928;-75
2022/03/14 08:06:17;;;;;;;;;;;;;;;;;;5090534;28;19932;-76
2022/03/14 08:08:43;;;;;;;;;;;;;;;;;;5090194;28;19936;-76
2022/03/14 08:11:09;;;;;;;;;;;;;;;;;;5090090;28;19957;-76
2022/03/14 08:13:36;;;;;;;;;;;;;;;;;;5086854;28;19932;-75
2022/03/14 08:16:03;;;;;;;;;;;;;;;;;;5090019;28;20451;-75
2022/03/14 08:18:29;;;;;;;;;;;;;;;;;;5089628;28;19928;-76
2022/03/14 08:20:57;;;;;;;;;;;;;;;;;;5089251;28;19989;-75
2022/03/14 08:23:23;;;;;;;;;;;;;;;;;;5086789;28;19993;-74
2022/03/14 08:25:50;;;;;;;;;;;;;;;;;;5089416;28;19975;-75
2022/03/14 08:28:16;;;;;;;;;;;;;;;;;;5087923;28;20003;-77
2022/03/14 08:30:44;;;;;;;;;;;;;;;;;;5089430;28;19977;-75
2022/03/14 08:33:10;;;;;;;;;;;;;;;;;;5086404;28;20048;-75
2022/03/14 08:35:36;;;;;;;;;;;;;;;;;;5088857;28;20351;-76
2022/03/14 08:38:03;;;;;;;;;;;;;;;;;;5089092;28;19989;-75
2022/03/14 08:40:29;;;;;;;;;;;;;;;;;;5089278;28;20082;-75
2022/03/14 08:42:55;;;;;;;;;;;;;;;;;;5086655;28;20038;-76
2022/03/14 08:45:21;;;;;;;;;;;;;;;;;;5088974;28;20001;-75
2022/03/14 08:47:47;;;;;;;;;;;;;;;;;;5088918;28;20365;-75
2022/03/14 08:50:14;;;;;;;;;;;;;;;;;;5089040;28;19975;-76
2022/03/14 08:52:40;;;;;;;;;;;;;;;;;;5087576;28;19983;-77
2022/03/14 08:55:07;;;;;;;;;;;;;;;;;;5088113;28;19986;-76
2022/03/14 08:57:33;;;;;;;;;;;;;;;;;;5088728;28;19998;-75
2022/03/14 08:59:59;;;;;;;;;;;;;;;;;;5090549;28;19979;-74
2022/03/14 09:02:26;;;;;;;;;;;;;;;;;;5090130;28;19982;-75
2022/03/14 09:04:52;;;;;;;;;;;;;;;;;;5087196;28;20074;-76
2022/03/14 09:07:18;;;;;;;;;;;;;;;;;;5088939;28;19978;-75
2022/03/14 09:09:45;;;;;;;;;;;;;;;;;;5089939;28;20005;-75
2022/03/14 09:12:13;;;;;;;;;;;;;;;;;;5091268;28;20491;-75
2022/03/14 09:14:40;;;;;;;;;;;;;;;;;;5089393;28;20020;-76
2022/03/14 09:17:06;;;;;;;;;;;;;;;;;;5091084;28;20226;-75
2022/03/14 09:19:34;;;;;;;;;;;;;;;;;;5090169;28;19967;-76
2022/03/14 09:22:00;;;;;;;;;;;;;;;;;;5088278;28;19992;-75
2022/03/14 09:24:27;;;;;;;;;;;;;;;;;;5082018;28;19994;-75
2022/03/14 09:26:55;;;;;;;;;;;;;;;;;;5091162;28;20013;-75
2022/03/14 09:29:22;;;;;;;;;;;;;;;;;;5087801;28;19965;-74
2022/03/14 09:31:49;;;;;;;;;;;;;;;;;;5089480;28;20037;-74
2022/03/14 09:34:15;;;;;;;;;;;;;;;;;;5089708;28;19985;-74
2022/03/14 09:36:41;;;;;;;;;;;;;;;;;;5089214;28;19952;-75
2022/03/14 09:39:07;;;;;;;;;;;;;;;;;;5087164;28;19972;-75
2022/03/14 09:41:33;;;;;;;;;;;;;;;;;;5087537;28;19963;-76
2022/03/14 09:43:59;;;;;;;;;;;;;;;;;;5089063;28;19967;-75
2022/03/14 09:46:25;;;;;;;;;;;;;;;;;;5102079;28;19935;-77
2022/03/14 09:48:52;;;;;;;;;;;;;;;;;;5105799;28;19934;-77
2022/03/14 09:51:18;;;;;;;;;;;;;;;;;;5107555;28;19931;-77
2022/03/14 09:53:45;;;;;;;;;;;;;;;;;;5099116;28;20401;-78
2022/03/14 09:56:11;;;;;;;;;;;;;;;;;;5099730;28;19924;-77
2022/03/14 09:58:38;;;;;;;;;;;;;;;;;;5092022;28;19936;-77
2022/03/14 10:01:05;;;;;;;;;;;;;;;;;;5103635;28;19923;-76
2022/03/14 10:03:31;;;;;;;;;;;;;;;;;;5098224;28;19928;-76
2022/03/14 10:05:57;;;;;;;;;;;;;;;;;;5102170;28;19924;-76
2022/03/14 10:08:24;;;;;;;;;;;;;;;;;;5093062;28;19932;-76
2022/03/14 10:10:50;;;;;;;;;;;;;;;;;;5097474;28;19928;-76
2022/03/14 10:13:16;;;;;;;;;;;;;;;;;;5095181;28;19960;-76
2022/03/14 10:15:42;;;;;;;;;;;;;;;;;;5100160;28;20329;-76
2022/03/14 10:18:09;;;;;;;;;;;;;;;;;;5089785;28;20066;-77
2022/03/14 10:20:35;;;;;;;;;;;;;;;;;;5083725;28;19955;-76
2022/03/14 10:23:01;;;;;;;;;;;;;;;;;;5085602;28;19946;-75
2022/03/14 10:25:27;;;;;;;;;;;;;;;;;;5088315;28;19931;-76
2022/03/14 10:27:57;;;;;;;;;;;;;;;;;;5086991;28;19974;-76
2022/03/14 10:30:23;;;;;;;;;;;;;;;;;;5084369;28;19948;-75
2022/03/14 10:32:49;;;;;;;;;;;;;;;;;;5086928;28;19946;-75
2022/03/14 10:35:15;;;;;;;;;;;;;;;;;;5087527;28;19975;-76
2022/03/14 10:37:42;;;;;;;;;;;;;;;;;;5087648;28;20007;-76
2022/03/14 10:40:08;;;;;;;;;;;;;;;;;;5080941;28;20125;-76
2022/03/14 10:42:34;;;;;;;;;;;;;;;;;;5087951;28;19990;-77
2022/03/14 10:45:00;;;;;;;;;;;;;;;;;;5095389;28;19976;-77
2022/03/14 10:47:26;;;;;;;;;;;;;;;;;;5107362;28;19957;-78
2022/03/14 10:49:52;;;;;;;;;;;;;;;;;;5089827;28;20020;-76
2022/03/14 10:52:20;;;;;;;;;;;;;;;;;;5086982;28;20511;-77
2022/03/14 10:54:46;;;;;;;;;;;;;;;;;;5087107;28;19992;-78
2022/03/14 10:57:12;;;;;;;;;;;;;;;;;;5086090;28;20362;-76
2022/03/14 10:59:38;;;;;;;;;;;;;;;;;;5085410;28;19971;-78
2022/03/14 11:02:04;;;;;;;;;;;;;;;;;;5087111;28;20180;-77
2022/03/14 11:04:30;;;;;;;;;;;;;;;;;;5088176;28;19999;-78
2022/03/14 11:06:57;;;;;;;;;;;;;;;;;;5083618;28;19971;-76
2022/03/14 11:09:23;;;;;;;;;;;;;;;;;;5078749;28;19953;-76
2022/03/14 11:11:49;;;;;;;;;;;;;;;;;;5086996;28;20350;-77
2022/03/14 11:14:15;;;;;;;;;;;;;;;;;;5080835;28;20008;-75
2022/03/14 11:16:41;;;;;;;;;;;;;;;;;;5082440;28;19967;-79
2022/03/14 11:19:09;;;;;;;;;;;;;;;;;;5087845;28;20483;-76
2022/03/14 11:21:36;;;;;;;;;;;;;;;;;;5091699;28;19989;-78
2022/03/14 11:24:02;;;;;;;;;;;;;;;;;;5089446;28;20074;-74
2022/03/14 11:26:28;;;;;;;;;;;;;;;;;;5089947;28;19958;-78
2022/03/14 11:28:54;;;;;;;;;;;;;;;;;;5091541;28;19958;-77
2022/03/14 11:31:20;;;;;;;;;;;;;;;;;;5086465;28;20859;-77
2022/03/14 11:33:46;;;;;;;;;;;;;;;;;;5090975;28;20414;-77
2022/03/14 11:36:13;;;;;;;;;;;;;;;;;;5091697;28;20351;-77
2022/03/14 11:38:39;;;;;;;;;;;;;;;;;;5091785;28;19991;-77
2022/03/14 11:41:05;;;;;;;;;;;;;;;;;;5091503;28;20000;-77
2022/03/14 11:43:31;;;;;;;;;;;;;;;;;;5087697;28;19974;-76
2022/03/14 11:45:58;;;;;;;;;;;;;;;;;;5085138;28;19942;-77
2022/03/14 11:48:24;;;;;;;;;;;;;;;;;;5090843;28;19948;-77
2022/03/14 11:50:50;;;;;;;;;;;;;;;;;;5091729;28;19952;-78
2022/03/14 11:53:16;;;;;;;;;;;;;;;;;;5090721;28;19991;-78
2022/03/14 11:55:42;;;;;;;;;;;;;;;;;;5091407;28;19935;-78
2022/03/14 11:58:08;;;;;;;;;;;;;;;;;;5092057;28;20426;-77
2022/03/14 12:00:35;;;;;;;;;;;;;;;;;;5091491;28;20279;-76
2022/03/14 12:03:01;;;;;;;;;;;;;;;;;;5091015;28;19924;-77
2022/03/14 12:05:28;;;;;;;;;;;;;;;;;;5094537;28;19924;-77
2022/03/14 12:07:54;;;;;;;;;;;;;;;;;;5092061;28;19932;-78
2022/03/14 12:10:20;;;;;;;;;;;;;;;;;;5093277;28;19928;-78
2022/03/14 12:12:46;;;;;;;;;;;;;;;;;;5094598;28;19928;-78
2022/03/14 12:15:12;;;;;;;;;;;;;;;;;;5093192;28;19928;-79
2022/03/14 12:17:38;;;;;;;;;;;;;;;;;;5084497;28;19928;-77
2022/03/14 12:20:05;;;;;;;;;;;;;;;;;;5093611;28;19924;-77
2022/03/14 12:22:32;;;;;;;;;;;;;;;;;;5095447;28;19928;-77
2022/03/14 12:24:58;;;;;;;;;;;;;;;;;;5094937;28;19928;-77
2022/03/14 12:27:26;;;;;;;;;;;;;;;;;;5096356;28;19928;-76
2022/03/14 12:29:52;;;;;;;;;;;;;;;;;;5095618;28;19955;-78
2022/03/14 12:32:18;;;;;;;;;;;;;;;;;;5096767;28;19928;-77
2022/03/14 12:34:44;;;;;;;;;;;;;;;;;;5094758;28;19939;-76
2022/03/14 12:37:10;;;;;;;;;;;;;;;;;;5089077;28;19928;-78
2022/03/14 12:39:37;;;;;;;;;;;;;;;;;;5089599;28;20065;-78
2022/03/14 12:42:03;;;;;;;;;;;;;;;;;;5087812;28;19935;-77
2022/03/14 12:44:29;;;;;;;;;;;;;;;;;;5087843;28;19962;-78
2022/03/14 12:46:56;;;;;;;;;;;;;;;;;;5086399;28;20018;-77
2022/03/14 12:49:22;;;;;;;;;;;;;;;;;;5089224;28;20023;-77
2022/03/14 12:51:48;;;;;;;;;;;;;;;;;;5088734;28;19928;-78
2022/03/14 12:54:15;;;;;;;;;;;;;;;;;;5089487;28;19927;-79
2022/03/14 12:56:41;;;;;;;;;;;;;;;;;;5088420;28;20007;-79
2022/03/14 12:59:07;;;;;;;;;;;;;;;;;;5090409;28;19932;-78
2022/03/14 13:01:36;;;;;;;;;;;;;;;;;;5089699;28;19940;-78
2022/03/14 13:04:05;;;;;;;;;;;;;;;;;;5089617;28;20026;-78
2022/03/14 13:06:31;;;;;;;;;;;;;;;;;;5088706;28;19956;-78
2022/03/14 13:08:58;;;;;;;;;;;;;;;;;;5088375;28;20177;-77
2022/03/14 13:11:24;;;;;;;;;;;;;;;;;;5089962;28;19928;-78
2022/03/14 13:13:50;;;;;;;;;;;;;;;;;;5090519;28;20347;-77
2022/03/14 13:16:16;;;;;;;;;;;;;;;;;;5085444;28;20315;-79
2022/03/14 13:18:43;;;;;;;;;;;;;;;;;;5091419;28;20381;-78
2022/03/14 13:21:10;;;;;;;;;;;;;;;;;;5089520;28;19967;-78
2022/03/14 13:23:36;;;;;;;;;;;;;;;;;;5088635;28;19939;-77
2022/03/14 13:26:03;;;;;;;;;;;;;;;;;;5087590;28;20002;-78
2022/03/14 13:28:29;;;;;;;;;;;;;;;;;;5089593;28;19946;-79
2022/03/14 13:30:57;;;;;;;;;;;;;;;;;;5089655;28;19924;-77
2022/03/14 13:33:26;;;;;;;;;;;;;;;;;;5109556;28;20015;-79
2022/03/14 13:35:52;;;;;;;;;;;;;;;;;;5104138;28;19977;-78
2022/03/14 13:38:18;;;;;;;;;;;;;;;;;;5086380;28;19931;-77
2022/03/14 13:40:44;;;;;;;;;;;;;;;;;;5087606;28;19951;-77
2022/03/14 13:43:10;;;;;;;;;;;;;;;;;;5088334;28;19924;-77
2022/03/14 13:45:36;;;;;;;;;;;;;;;;;;5088664;28;19931;-77
2022/03/14 13:48:03;;;;;;;;;;;;;;;;;;5084096;28;19935;-78
2022/03/14 13:50:29;;;;;;;;;;;;;;;;;;5089159;28;19924;-78
2022/03/14 13:52:55;;;;;;;;;;;;;;;;;;5089579;28;19928;-77
2022/03/14 13:55:22;;;;;;;;;;;;;;;;;;5089131;28;19927;-77
2022/03/14 13:57:48;;;;;;;;;;;;;;;;;;5088025;28;19928;-78
2022/03/14 14:00:14;;;;;;;;;;;;;;;;;;5088734;28;19928;-78
2022/03/14 14:02:40;;;;;;;;;;;;;;;;;;5088087;28;19928;-78
2022/03/14 14:05:07;;;;;;;;;;;;;;;;;;5088310;28;19924;-78
2022/03/14 14:07:34;;;;;;;;;;;;;;;;;;5083064;28;19924;-74
2022/03/14 14:10:01;;;;;;;;;;;;;;;;;;5085980;28;19931;-77
2022/03/14 14:12:27;;;;;;;;;;;;;;;;;;5082518;28;19928;-77
2022/03/14 14:14:54;;;;;;;;;;;;;;;;;;5080999;28;20022;-79
2022/03/14 14:17:20;;;;;;;;;;;;;;;;;;5076660;28;19924;-77
2022/03/14 14:19:46;;;;;;;;;;;;;;;;;;5087445;28;19928;-78
2022/03/14 14:22:13;;;;;;;;;;;;;;;;;;5084904;28;20623;-78
2022/03/14 14:24:39;;;;;;;;;;;;;;;;;;5084866;28;20275;-78
2022/03/14 14:27:05;;;;;;;;;;;;;;;;;;5086634;28;19932;-78
2022/03/14 14:29:31;;;;;;;;;;;;;;;;;;5074775;28;19924;-77
2022/03/14 14:31:57;;;;;;;;;;;;;;;;;;5086427;28;20259;-77
2022/03/14 14:34:23;;;;;;;;;;;;;;;;;;5079135;28;19924;-76
2022/03/14 14:36:49;;;;;;;;;;;;;;;;;;5086722;28;19950;-76
2022/03/14 14:39:15;;;;;;;;;;;;;;;;;;5088296;28;19954;-77
2022/03/14 14:41:41;;;;;;;;;;;;;;;;;;5088023;28;19939;-78
2022/03/14 14:44:08;;;;;;;;;;;;;;;;;;5086362;28;19931;-77
2022/03/14 14:46:34;;;;;;;;;;;;;;;;;;5083397;28;20074;-78
2022/03/14 14:49:00;;;;;;;;;;;;;;;;;;5087755;28;20344;-78
2022/03/14 14:51:26;;;;;;;;;;;;;;;;;;5087781;28;20015;-77
2022/03/14 14:53:52;;;;;;;;;;;;;;;;;;5076082;28;19929;-76
2022/03/14 14:56:19;;;;;;;;;;;;;;;;;;5088374;28;19924;-75
2022/03/14 14:58:45;;;;;;;;;;;;;;;;;;5093435;28;19931;-76
2022/03/14 15:01:11;;;;;;;;;;;;;;;;;;5092094;28;20333;-76
2022/03/14 15:03:37;;;;;;;;;;;;;;;;;;5091406;28;19924;-76
2022/03/14 15:06:03;;;;;;;;;;;;;;;;;;5076575;28;20416;-77
2022/03/14 15:08:29;;;;;;;;;;;;;;;;;;5077809;28;19931;-76
2022/03/14 15:10:55;;;;;;;;;;;;;;;;;;5089948;28;19928;-77
2022/03/14 15:13:22;;;;;;;;;;;;;;;;;;5089142;28;19924;-76
2022/03/14 15:15:49;;;;;;;;;;;;;;;;;;5091703;28;19924;-77
2022/03/14 15:18:17;;;;;;;;;;;;;;;;;;5083073;28;20271;-75
2022/03/14 15:20:43;;;;;;;;;;;;;;;;;;5088886;28;19936;-74
2022/03/14 15:23:09;;;;;;;;;;;;;;;;;;5090983;28;20299;-76
2022/03/14 15:25:35;;;;;;;;;;;;;;;;;;5092018;28;19940;-78
2022/03/14 15:28:01;;;;;;;;;;;;;;;;;;5090624;28;19928;-78
2022/03/14 15:30:27;;;;;;;;;;;;;;;;;;5090933;28;19965;-75
2022/03/14 15:32:54;;;;;;;;;;;;;;;;;;5088729;28;19932;-77
2022/03/14 15:35:20;;;;;;;;;;;;;;;;;;5077755;28;19937;-77
2022/03/14 15:37:47;;;;;;;;;;;;;;;;;;5083549;28;19936;-77
2022/03/14 15:40:13;;;;;;;;;;;;;;;;;;5083980;28;20409;-77
2022/03/14 15:42:39;;;;;;;;;;;;;;;;;;5078546;28;19977;-77
2022/03/14 15:45:06;;;;;;;;;;;;;;;;;;5082305;28;20028;-74
2022/03/14 15:47:32;;;;;;;;;;;;;;;;;;5076393;28;19928;-73
2022/03/14 15:49:59;;;;;;;;;;;;;;;;;;5084523;28;19999;-74
2022/03/14 15:52:25;;;;;;;;;;;;;;;;;;5087212;28;19928;-75
2022/03/14 15:54:51;;;;;;;;;;;;;;;;;;5085896;28;20002;-74
2022/03/14 15:57:19;;;;;;;;;;;;;;;;;;5084571;28;19961;-75
2022/03/14 15:59:45;;;;;;;;;;;;;;;;;;5084967;28;19928;-75
2022/03/14 16:02:11;;;;;;;;;;;;;;;;;;5089527;28;20061;-75
2022/03/14 16:04:37;;;;;;;;;;;;;;;;;;5090028;28;19932;-75
2022/03/14 16:07:03;;;;;;;;;;;;;;;;;;5088979;28;19963;-75
2022/03/14 16:09:29;;;;;;;;;;;;;;;;;;5088135;28;19935;-78
2022/03/14 16:11:56;;;;;;;;;;;;;;;;;;5088413;28;19941;-77
2022/03/14 16:14:22;;;;;;;;;;;;;;;;;;5090235;28;20084;-74
2022/03/14 16:16:48;;;;;;;;;;;;;;;;;;5090787;28;19928;-77
2022/03/14 16:19:14;;;;;;;;;;;;;;;;;;5088694;28;19935;-74
2022/03/14 16:21:40;;;;;;;;;;;;;;;;;;5093756;28;19928;-77
2022/03/14 16:24:07;;;;;;;;;;;;;;;;;;5114772;28;19976;-75
2022/03/14 16:26:35;;;;;;;;;;;;;;;;;;5095504;28;19995;-73
2022/03/14 16:29:01;;;;;;;;;;;;;;;;;;5088381;28;19994;-76
2022/03/14 16:31:27;;;;;;;;;;;;;;;;;;5086921;28;20382;-75
2022/03/14 16:33:54;;;;;;;;;;;;;;;;;;5089603;28;20321;-75
2022/03/14 16:36:21;;;;;;;;;;;;;;;;;;5088161;28;20004;-76
2022/03/14 16:38:47;;;;;;;;;;;;;;;;;;5088255;28;19978;-75